createdAt,value
2017-07-05T00:00:44.278Z,0
2017-07-05T00:01:44.286Z,0
2017-07-05T00:02:43.963Z,0
2017-07-05T00:03:43.967Z,0
2017-07-05T00:04:44.243Z,0
2017-07-05T00:05:44.260Z,0
2017-07-05T00:06:44.244Z,0
2017-07-05T00:07:44.253Z,0
2017-07-05T00:08:44.254Z,0
2017-07-05T00:09:43.907Z,0
2017-07-05T00:10:43.931Z,0
2017-07-05T00:11:43.905Z,0
2017-07-05T00:12:43.592Z,0
2017-07-05T00:13:44.230Z,0
2017-07-05T00:14:44.213Z,0
2017-07-05T00:15:43.877Z,0
2017-07-05T00:16:44.176Z,0
2017-07-05T00:17:43.880Z,0
2017-07-05T00:18:44.215Z,0
2017-07-05T00:19:44.204Z,0
2017-07-05T00:20:43.858Z,0
2017-07-05T00:21:44.181Z,0
2017-07-05T00:22:43.864Z,0
2017-07-05T00:23:43.539Z,0
2017-07-05T00:24:43.510Z,0
2017-07-05T00:25:44.164Z,0
2017-07-05T00:26:43.519Z,0
2017-07-05T00:27:44.160Z,0
2017-07-05T00:28:43.805Z,0
2017-07-05T00:29:44.136Z,0
2017-07-05T00:30:44.188Z,0
2017-07-05T00:31:44.135Z,0
2017-07-05T00:32:44.100Z,0
2017-07-05T00:33:44.144Z,0
2017-07-05T00:34:43.808Z,0
2017-07-05T00:35:44.129Z,0
2017-07-05T00:36:43.772Z,0
2017-07-05T00:37:43.484Z,0
2017-07-05T00:38:44.084Z,0
2017-07-05T00:39:44.097Z,0
2017-07-05T00:40:44.065Z,0
2017-07-05T00:41:44.136Z,0
2017-07-05T00:42:44.083Z,0
2017-07-05T00:43:44.073Z,0
2017-07-05T00:44:44.066Z,0
2017-07-05T00:45:44.057Z,0
2017-07-05T00:46:43.797Z,0
2017-07-05T00:47:44.059Z,0
2017-07-05T00:48:43.752Z,0
2017-07-05T00:49:44.089Z,0
2017-07-05T00:50:44.078Z,0
2017-07-05T00:51:44.006Z,0
2017-07-05T00:52:44.032Z,0
2017-07-05T00:53:43.702Z,0
2017-07-05T00:54:43.982Z,0
2017-07-05T00:55:43.382Z,0
2017-07-05T00:56:43.721Z,0
2017-07-05T00:57:43.693Z,0
2017-07-05T00:58:43.692Z,0
2017-07-05T00:59:43.364Z,0
2017-07-05T01:00:43.995Z,0
2017-07-05T01:01:43.984Z,0
2017-07-05T01:02:43.992Z,0
2017-07-05T01:03:43.991Z,0
2017-07-05T01:04:43.662Z,0
2017-07-05T01:05:43.969Z,0
2017-07-05T01:06:43.970Z,0
2017-07-05T01:07:43.617Z,0
2017-07-05T01:08:43.977Z,0
2017-07-05T01:09:43.951Z,0
2017-07-05T01:10:43.996Z,0
2017-07-05T01:11:43.953Z,0
2017-07-05T01:12:43.923Z,0
2017-07-05T01:13:43.616Z,0
2017-07-05T01:14:43.927Z,0
2017-07-05T01:15:43.920Z,0
2017-07-05T01:16:43.883Z,0
2017-07-05T01:17:43.914Z,0
2017-07-05T01:18:43.588Z,0
2017-07-05T01:19:43.917Z,0
2017-07-05T01:20:43.908Z,0
2017-07-05T01:21:43.609Z,0
2017-07-05T01:22:43.886Z,0
2017-07-05T01:23:43.578Z,0
2017-07-05T01:24:43.559Z,0
2017-07-05T01:25:43.935Z,0
2017-07-05T01:26:43.851Z,0
2017-07-05T01:27:43.239Z,0
2017-07-05T01:28:43.850Z,0
2017-07-05T01:29:43.881Z,0
2017-07-05T01:30:43.235Z,0
2017-07-05T01:31:43.541Z,0
2017-07-05T01:32:43.821Z,0
2017-07-05T01:33:43.830Z,0
2017-07-05T01:34:43.518Z,0
2017-07-05T01:35:43.825Z,0
2017-07-05T01:36:43.838Z,0
2017-07-05T01:37:43.811Z,0
2017-07-05T01:38:43.804Z,0
2017-07-05T01:39:43.797Z,0
2017-07-05T01:40:43.191Z,0
2017-07-05T01:41:43.798Z,0
2017-07-05T01:42:43.821Z,0
2017-07-05T01:43:43.804Z,0
2017-07-05T01:44:43.787Z,0
2017-07-05T01:45:43.136Z,0
2017-07-05T01:46:43.464Z,0
2017-07-05T01:47:43.769Z,0
2017-07-05T01:48:43.459Z,0
2017-07-05T01:49:43.761Z,0
2017-07-05T01:50:43.447Z,0
2017-07-05T01:51:43.768Z,0
2017-07-05T01:52:43.756Z,0
2017-07-05T01:53:43.755Z,0
2017-07-05T01:54:43.742Z,0
2017-07-05T01:55:43.084Z,0
2017-07-05T01:56:43.742Z,0
2017-07-05T01:57:43.716Z,0
2017-07-05T01:58:43.735Z,0
2017-07-05T01:59:43.717Z,0
2017-07-05T02:00:43.412Z,0
2017-07-05T02:01:43.378Z,0
2017-07-05T02:02:43.380Z,0
2017-07-05T02:03:43.370Z,0
2017-07-05T02:04:43.703Z,0
2017-07-05T02:05:43.704Z,0
2017-07-05T02:06:43.736Z,0
2017-07-05T02:07:43.673Z,0
2017-07-05T02:08:43.679Z,0
2017-07-05T02:09:43.672Z,0
2017-07-05T02:10:43.662Z,0
2017-07-05T02:11:43.680Z,0
2017-07-05T02:12:43.646Z,0
2017-07-05T02:13:43.344Z,0
2017-07-05T02:14:43.648Z,0
2017-07-05T02:15:43.315Z,0
2017-07-05T02:16:43.332Z,0
2017-07-05T02:17:43.657Z,0
2017-07-05T02:18:43.626Z,0
2017-07-05T02:19:43.303Z,0
2017-07-05T02:20:43.627Z,0
2017-07-05T02:21:43.315Z,0
2017-07-05T02:22:43.278Z,0
2017-07-05T02:23:42.963Z,0
2017-07-05T02:24:43.589Z,0
2017-07-05T02:25:42.966Z,0
2017-07-05T02:26:43.597Z,0
2017-07-05T02:27:43.618Z,0
2017-07-05T02:28:42.935Z,0
2017-07-05T02:29:43.583Z,0
2017-07-05T02:30:43.231Z,0
2017-07-05T02:31:43.576Z,0
2017-07-05T02:32:43.234Z,0
2017-07-05T02:33:43.245Z,0
2017-07-05T02:34:43.232Z,0
2017-07-05T02:35:43.555Z,0
2017-07-05T02:36:42.585Z,0
2017-07-05T02:37:43.218Z,0
2017-07-05T02:38:43.533Z,0
2017-07-05T02:39:43.229Z,0
2017-07-05T02:40:43.503Z,0
2017-07-05T02:41:42.884Z,0
2017-07-05T02:42:43.211Z,0
2017-07-05T02:43:43.208Z,0
2017-07-05T02:44:43.178Z,0
2017-07-05T02:45:43.499Z,0
2017-07-05T02:46:43.166Z,0
2017-07-05T02:47:43.507Z,0
2017-07-05T02:48:43.155Z,0
2017-07-05T02:49:43.186Z,0
2017-07-05T02:50:43.490Z,0
2017-07-05T02:51:43.474Z,0
2017-07-05T02:52:43.138Z,5
2017-07-05T02:53:43.478Z,5
2017-07-05T02:54:42.832Z,5
2017-07-05T02:55:43.136Z,5
2017-07-05T02:56:43.429Z,5
2017-07-05T02:57:43.444Z,10
2017-07-05T02:58:43.120Z,10
2017-07-05T02:59:43.131Z,10
2017-07-05T03:00:43.106Z,10
2017-07-05T03:01:43.437Z,10
2017-07-05T03:02:43.419Z,10
2017-07-05T03:03:42.843Z,15
2017-07-05T03:04:43.405Z,15
2017-07-05T03:05:42.791Z,15
2017-07-05T03:06:43.145Z,15
2017-07-05T03:07:43.392Z,15
2017-07-05T03:08:43.095Z,15
2017-07-05T03:09:43.074Z,20
2017-07-05T03:10:43.132Z,20
2017-07-05T03:11:42.747Z,20
2017-07-05T03:12:43.059Z,20
2017-07-05T03:13:43.069Z,20
2017-07-05T03:14:43.369Z,25
2017-07-05T03:15:42.750Z,25
2017-07-05T03:16:43.351Z,25
2017-07-05T03:17:43.053Z,25
2017-07-05T03:18:43.013Z,30
2017-07-05T03:19:43.045Z,30
2017-07-05T03:20:43.018Z,30
2017-07-05T03:21:43.037Z,35
2017-07-05T03:22:42.999Z,35
2017-07-05T03:23:43.022Z,35
2017-07-05T03:24:43.000Z,35
2017-07-05T03:25:42.995Z,40
2017-07-05T03:26:43.305Z,40
2017-07-05T03:27:42.691Z,40
2017-07-05T03:28:43.322Z,45
2017-07-05T03:29:42.663Z,45
2017-07-05T03:30:42.987Z,50
2017-07-05T03:31:42.980Z,50
2017-07-05T03:32:43.283Z,50
2017-07-05T03:33:43.292Z,50
2017-07-05T03:34:42.949Z,50
2017-07-05T03:35:42.973Z,55
2017-07-05T03:36:42.624Z,55
2017-07-05T03:37:42.963Z,55
2017-07-05T03:38:42.943Z,55
2017-07-05T03:39:42.953Z,55
2017-07-05T03:40:42.595Z,55
2017-07-05T03:41:42.938Z,55
2017-07-05T03:42:42.600Z,55
2017-07-05T03:43:43.245Z,55
2017-07-05T03:44:43.322Z,55
2017-07-05T03:45:42.905Z,55
2017-07-05T03:46:42.590Z,55
2017-07-05T03:47:42.566Z,55
2017-07-05T03:48:42.912Z,55
2017-07-05T03:49:42.893Z,60
2017-07-05T03:50:42.907Z,60
2017-07-05T03:51:42.870Z,65
2017-07-05T03:52:42.892Z,65
2017-07-05T03:53:43.155Z,65
2017-07-05T03:54:42.869Z,65
2017-07-05T03:55:42.880Z,65
2017-07-05T03:56:42.885Z,65
2017-07-05T03:57:42.867Z,65
2017-07-05T03:58:42.842Z,70
2017-07-05T03:59:42.844Z,70
2017-07-05T04:00:43.179Z,65
2017-07-05T04:01:42.836Z,65
2017-07-05T04:02:42.845Z,70
2017-07-05T04:03:43.131Z,70
2017-07-05T04:04:42.847Z,70
2017-07-05T04:05:43.132Z,70
2017-07-05T04:06:42.836Z,75
2017-07-05T04:07:42.812Z,80
2017-07-05T04:08:42.509Z,85
2017-07-05T04:09:42.851Z,95
2017-07-05T04:10:43.113Z,105
2017-07-05T04:11:42.490Z,115
2017-07-05T04:12:43.148Z,125
2017-07-05T04:13:43.102Z,135
2017-07-05T04:14:42.489Z,140
2017-07-05T04:15:42.772Z,145
2017-07-05T04:16:43.102Z,145
2017-07-05T04:17:42.781Z,150
2017-07-05T04:18:43.086Z,155
2017-07-05T04:19:42.477Z,160
2017-07-05T04:20:42.748Z,165
2017-07-05T04:21:42.764Z,180
2017-07-05T04:22:43.070Z,195
2017-07-05T04:23:43.050Z,200
2017-07-05T04:24:42.440Z,205
2017-07-05T04:25:43.067Z,215
2017-07-05T04:26:43.069Z,185
2017-07-05T04:27:42.733Z,180
2017-07-05T04:28:42.757Z,180
2017-07-05T04:29:42.734Z,185
2017-07-05T04:30:42.407Z,190
2017-07-05T04:31:42.389Z,205
2017-07-05T04:32:42.404Z,180
2017-07-05T04:33:42.402Z,165
2017-07-05T04:34:42.729Z,155
2017-07-05T04:35:42.764Z,160
2017-07-05T04:36:42.711Z,165
2017-07-05T04:37:42.707Z,165
2017-07-05T04:38:42.741Z,155
2017-07-05T04:39:42.382Z,135
2017-07-05T04:40:42.393Z,115
2017-07-05T04:41:42.366Z,100
2017-07-05T04:42:42.052Z,90
2017-07-05T04:43:42.981Z,90
2017-07-05T04:44:42.689Z,90
2017-07-05T04:45:42.691Z,95
2017-07-05T04:46:43.000Z,105
2017-07-05T04:47:42.967Z,115
2017-07-05T04:48:42.365Z,125
2017-07-05T04:49:42.983Z,130
2017-07-05T04:50:42.969Z,135
2017-07-05T04:51:42.345Z,145
2017-07-05T04:52:42.678Z,150
2017-07-05T04:53:43.037Z,155
2017-07-05T04:54:42.676Z,175
2017-07-05T04:55:42.325Z,190
2017-07-05T04:56:42.665Z,195
2017-07-05T04:57:42.628Z,195
2017-07-05T04:58:42.333Z,180
2017-07-05T04:59:42.960Z,155
2017-07-05T05:00:42.659Z,130
2017-07-05T05:01:42.961Z,115
2017-07-05T05:02:42.628Z,115
2017-07-05T05:03:42.940Z,115
2017-07-05T05:04:42.624Z,115
2017-07-05T05:05:42.322Z,120
2017-07-05T05:06:42.306Z,125
2017-07-05T05:07:42.303Z,130
2017-07-05T05:08:42.591Z,130
2017-07-05T05:09:42.931Z,130
2017-07-05T05:10:42.905Z,130
2017-07-05T05:11:42.695Z,130
2017-07-05T05:12:42.590Z,125
2017-07-05T05:13:42.929Z,135
2017-07-05T05:14:42.596Z,150
2017-07-05T05:15:42.283Z,165
2017-07-05T05:16:42.923Z,175
2017-07-05T05:17:42.908Z,180
2017-07-05T05:18:42.602Z,175
2017-07-05T05:19:42.264Z,180
2017-07-05T05:20:42.899Z,185
2017-07-05T05:21:42.914Z,185
2017-07-05T05:22:42.581Z,175
2017-07-05T05:23:42.619Z,170
2017-07-05T05:24:42.554Z,160
2017-07-05T05:25:42.902Z,155
2017-07-05T05:26:42.872Z,140
2017-07-05T05:27:42.250Z,135
2017-07-05T05:28:42.919Z,135
2017-07-05T05:29:42.887Z,145
2017-07-05T05:30:42.542Z,155
2017-07-05T05:31:42.249Z,155
2017-07-05T05:32:42.839Z,155
2017-07-05T05:33:42.547Z,155
2017-07-05T05:34:42.863Z,155
2017-07-05T05:35:42.239Z,150
2017-07-05T05:36:42.556Z,145
2017-07-05T05:37:42.536Z,150
2017-07-05T05:38:42.533Z,160
2017-07-05T05:39:41.895Z,165
2017-07-05T05:40:42.499Z,170
2017-07-05T05:41:41.903Z,175
2017-07-05T05:42:42.200Z,180
2017-07-05T05:43:42.842Z,185
2017-07-05T05:44:41.870Z,175
2017-07-05T05:45:42.207Z,165
2017-07-05T05:46:42.818Z,155
2017-07-05T05:47:42.858Z,155
2017-07-05T05:48:42.811Z,155
2017-07-05T05:49:42.498Z,155
2017-07-05T05:50:42.496Z,150
2017-07-05T05:51:42.799Z,150
2017-07-05T05:52:42.833Z,140
2017-07-05T05:53:42.815Z,135
2017-07-05T05:54:42.165Z,130
2017-07-05T05:55:42.469Z,135
2017-07-05T05:56:42.812Z,135
2017-07-05T05:57:42.781Z,135
2017-07-05T05:58:42.491Z,135
2017-07-05T05:59:42.775Z,150
2017-07-05T06:00:42.530Z,160
2017-07-05T06:01:42.783Z,180
2017-07-05T06:02:42.478Z,190
2017-07-05T06:03:42.770Z,180
2017-07-05T06:04:42.468Z,165
2017-07-05T06:05:42.476Z,155
2017-07-05T06:06:42.775Z,140
2017-07-05T06:07:42.794Z,130
2017-07-05T06:08:42.452Z,125
2017-07-05T06:09:42.773Z,130
2017-07-05T06:10:42.442Z,135
2017-07-05T06:11:42.435Z,135
2017-07-05T06:12:42.451Z,135
2017-07-05T06:13:42.751Z,130
2017-07-05T06:14:42.117Z,130
2017-07-05T06:15:42.100Z,130
2017-07-05T06:16:42.431Z,120
2017-07-05T06:17:42.733Z,110
2017-07-05T06:18:42.737Z,100
2017-07-05T06:19:42.409Z,100
2017-07-05T06:20:42.436Z,100
2017-07-05T06:21:42.424Z,100
2017-07-05T06:22:42.079Z,95
2017-07-05T06:23:42.386Z,95
2017-07-05T06:24:42.404Z,95
2017-07-05T06:25:42.721Z,100
2017-07-05T06:26:42.711Z,105
2017-07-05T06:27:42.400Z,110
2017-07-05T06:28:42.699Z,110
2017-07-05T06:29:42.703Z,120
2017-07-05T06:30:42.713Z,120
2017-07-05T06:31:42.692Z,120
2017-07-05T06:32:42.714Z,115
2017-07-05T06:33:42.042Z,120
2017-07-05T06:34:42.700Z,125
2017-07-05T06:35:42.671Z,125
2017-07-05T06:36:42.369Z,135
2017-07-05T06:37:42.677Z,145
2017-07-05T06:38:42.668Z,150
2017-07-05T06:39:42.345Z,155
2017-07-05T06:40:42.340Z,150
2017-07-05T06:41:42.679Z,135
2017-07-05T06:42:42.667Z,115
2017-07-05T06:43:42.677Z,110
2017-07-05T06:44:42.319Z,105
2017-07-05T06:45:42.950Z,110
2017-07-05T06:46:42.363Z,120
2017-07-05T06:47:42.347Z,135
2017-07-05T06:48:42.310Z,140
2017-07-05T06:49:42.367Z,140
2017-07-05T06:50:42.632Z,135
2017-07-05T06:51:42.002Z,130
2017-07-05T06:52:41.975Z,135
2017-07-05T06:53:42.609Z,135
2017-07-05T06:54:42.620Z,145
2017-07-05T06:55:42.626Z,145
2017-07-05T06:56:42.588Z,145
2017-07-05T06:57:42.598Z,140
2017-07-05T06:58:41.966Z,150
2017-07-05T06:59:42.620Z,180
2017-07-05T07:00:42.261Z,200
2017-07-05T07:01:42.274Z,200
2017-07-05T07:02:42.565Z,200
2017-07-05T07:03:42.589Z,195
2017-07-05T07:04:42.560Z,210
2017-07-05T07:05:42.582Z,220
2017-07-05T07:06:42.555Z,220
2017-07-05T07:07:42.580Z,200
2017-07-05T07:08:42.223Z,195
2017-07-05T07:09:42.534Z,215
2017-07-05T07:10:42.557Z,245
2017-07-05T07:11:42.565Z,255
2017-07-05T07:12:42.553Z,260
2017-07-05T07:13:42.230Z,250
2017-07-05T07:14:41.905Z,235
2017-07-05T07:15:42.186Z,250
2017-07-05T07:16:42.542Z,270
2017-07-05T07:17:42.520Z,280
2017-07-05T07:18:41.901Z,285
2017-07-05T07:19:42.198Z,320
2017-07-05T07:20:42.207Z,360
2017-07-05T07:21:42.494Z,385
2017-07-05T07:22:41.863Z,385
2017-07-05T07:23:42.190Z,390
2017-07-05T07:24:42.160Z,400
2017-07-05T07:25:42.480Z,410
2017-07-05T07:26:42.469Z,425
2017-07-05T07:27:42.487Z,415
2017-07-05T07:28:42.499Z,375
2017-07-05T07:29:42.154Z,340
2017-07-05T07:30:42.156Z,355
2017-07-05T07:31:42.447Z,410
2017-07-05T07:32:42.460Z,455
2017-07-05T07:33:41.504Z,495
2017-07-05T07:34:42.464Z,535
2017-07-05T07:35:42.451Z,510
2017-07-05T07:36:42.463Z,415
2017-07-05T07:37:42.419Z,325
2017-07-05T07:38:42.428Z,275
2017-07-05T07:39:42.429Z,280
2017-07-05T07:40:42.444Z,285
2017-07-05T07:41:42.424Z,270
2017-07-05T07:42:42.417Z,265
2017-07-05T07:43:42.425Z,275
2017-07-05T07:44:42.081Z,265
2017-07-05T07:45:42.411Z,250
2017-07-05T07:46:41.458Z,245
2017-07-05T07:47:42.083Z,240
2017-07-05T07:48:42.406Z,235
2017-07-05T07:49:42.387Z,230
2017-07-05T07:50:41.769Z,230
2017-07-05T07:51:41.748Z,235
2017-07-05T07:52:42.391Z,225
2017-07-05T07:53:41.731Z,225
2017-07-05T07:54:42.396Z,245
2017-07-05T07:55:42.058Z,235
2017-07-05T07:56:41.741Z,210
2017-07-05T07:57:41.731Z,200
2017-07-05T07:58:42.055Z,200
2017-07-05T07:59:41.717Z,210
2017-07-05T08:00:41.735Z,225
2017-07-05T08:01:42.350Z,235
2017-07-05T08:02:41.387Z,260
2017-07-05T08:03:42.009Z,265
2017-07-05T08:04:41.705Z,260
2017-07-05T08:05:42.009Z,260
2017-07-05T08:06:42.020Z,250
2017-07-05T08:07:42.330Z,250
2017-07-05T08:08:42.341Z,260
2017-07-05T08:09:41.668Z,285
2017-07-05T08:10:41.999Z,275
2017-07-05T08:11:41.988Z,255
2017-07-05T08:12:41.677Z,240
2017-07-05T08:13:41.967Z,230
2017-07-05T08:14:41.983Z,225
2017-07-05T08:15:41.982Z,225
2017-07-05T08:16:41.339Z,230
2017-07-05T08:17:41.963Z,235
2017-07-05T08:18:42.325Z,230
2017-07-05T08:19:42.256Z,230
2017-07-05T08:20:42.271Z,240
2017-07-05T08:21:42.258Z,260
2017-07-05T08:22:41.949Z,295
2017-07-05T08:23:41.938Z,330
2017-07-05T08:24:41.927Z,330
2017-07-05T08:25:41.597Z,310
2017-07-05T08:26:41.933Z,305
2017-07-05T08:27:42.223Z,295
2017-07-05T08:28:42.236Z,280
2017-07-05T08:29:42.242Z,290
2017-07-05T08:30:41.289Z,325
2017-07-05T08:31:42.212Z,370
2017-07-05T08:32:41.934Z,415
2017-07-05T08:33:42.220Z,450
2017-07-05T08:34:41.883Z,470
2017-07-05T08:35:42.215Z,490
2017-07-05T08:36:41.245Z,515
2017-07-05T08:37:42.198Z,545
2017-07-05T08:38:42.573Z,550
2017-07-05T08:39:41.540Z,530
2017-07-05T08:40:41.558Z,495
2017-07-05T08:41:42.150Z,480
2017-07-05T08:42:41.536Z,470
2017-07-05T08:43:41.210Z,480
2017-07-05T08:44:42.198Z,495
2017-07-05T08:45:41.533Z,505
2017-07-05T08:46:42.156Z,530
2017-07-05T08:47:42.149Z,545
2017-07-05T08:48:41.830Z,555
2017-07-05T08:49:42.164Z,590
2017-07-05T08:50:41.835Z,620
2017-07-05T08:51:42.154Z,645
2017-07-05T08:52:42.140Z,680
2017-07-05T08:53:41.828Z,705
2017-07-05T08:54:41.493Z,665
2017-07-05T08:55:41.847Z,585
2017-07-05T08:56:41.815Z,535
2017-07-05T08:57:41.820Z,500
2017-07-05T08:58:42.131Z,470
2017-07-05T08:59:42.128Z,450
2017-07-05T09:00:42.114Z,450
2017-07-05T09:01:41.798Z,465
2017-07-05T09:02:41.798Z,485
2017-07-05T09:03:42.128Z,490
2017-07-05T09:04:42.087Z,495
2017-07-05T09:05:41.489Z,510
2017-07-05T09:06:41.795Z,525
2017-07-05T09:07:41.804Z,560
2017-07-05T09:08:41.771Z,595
2017-07-05T09:09:41.795Z,650
2017-07-05T09:10:42.095Z,695
2017-07-05T09:11:41.797Z,715
2017-07-05T09:12:41.770Z,710
2017-07-05T09:13:41.799Z,670
2017-07-05T09:14:41.776Z,645
2017-07-05T09:15:41.784Z,675
2017-07-05T09:16:41.769Z,760
2017-07-05T09:17:42.089Z,865
2017-07-05T09:18:42.099Z,960
2017-07-05T09:19:42.094Z,990
2017-07-05T09:20:42.105Z,975
2017-07-05T09:21:42.077Z,925
2017-07-05T09:22:41.455Z,905
2017-07-05T09:23:42.058Z,885
2017-07-05T09:24:42.102Z,855
2017-07-05T09:25:42.081Z,800
2017-07-05T09:26:41.791Z,770
2017-07-05T09:27:42.083Z,765
2017-07-05T09:28:41.780Z,725
2017-07-05T09:29:41.763Z,730
2017-07-05T09:30:41.761Z,755
2017-07-05T09:31:41.791Z,780
2017-07-05T09:32:42.078Z,760
2017-07-05T09:33:42.082Z,745
2017-07-05T09:34:42.101Z,725
2017-07-05T09:35:41.789Z,695
2017-07-05T09:36:41.468Z,735
2017-07-05T09:37:41.767Z,845
2017-07-05T09:38:42.089Z,865
2017-07-05T09:39:41.765Z,855
2017-07-05T09:40:41.796Z,1015
2017-07-05T09:41:42.102Z,1065
2017-07-05T09:42:41.858Z,1140
2017-07-05T09:43:42.131Z,1055
2017-07-05T09:44:42.105Z,1020
2017-07-05T09:45:42.133Z,955
2017-07-05T09:46:42.120Z,975
2017-07-05T09:47:41.791Z,1110
2017-07-05T09:48:42.114Z,1125
2017-07-05T09:49:42.114Z,1140
2017-07-05T09:50:41.480Z,1200
2017-07-05T09:51:41.821Z,1205
2017-07-05T09:52:41.829Z,1230
2017-07-05T09:53:41.817Z,1115
2017-07-05T09:54:41.828Z,1035
2017-07-05T09:55:41.832Z,1000
2017-07-05T09:56:42.155Z,1025
2017-07-05T09:57:41.514Z,1030
2017-07-05T09:58:41.826Z,975
2017-07-05T09:59:41.861Z,1030
2017-07-05T10:00:41.847Z,965
2017-07-05T10:01:41.870Z,910
2017-07-05T10:02:41.870Z,875
2017-07-05T10:03:42.199Z,815
2017-07-05T10:04:42.200Z,765
2017-07-05T10:05:41.871Z,755
2017-07-05T10:06:41.566Z,750
2017-07-05T10:07:42.225Z,780
2017-07-05T10:08:42.231Z,820
2017-07-05T10:09:42.217Z,870
2017-07-05T10:10:42.219Z,870
2017-07-05T10:11:41.896Z,905
2017-07-05T10:12:41.928Z,905
2017-07-05T10:13:41.909Z,940
2017-07-05T10:14:41.934Z,975
2017-07-05T10:15:41.608Z,1040
2017-07-05T10:16:41.943Z,1065
2017-07-05T10:17:42.247Z,1100
2017-07-05T10:18:42.254Z,1105
2017-07-05T10:19:42.261Z,1090
2017-07-05T10:20:41.973Z,1035
2017-07-05T10:21:41.960Z,965
2017-07-05T10:22:42.271Z,900
2017-07-05T10:23:41.977Z,850
2017-07-05T10:24:42.316Z,875
2017-07-05T10:25:41.975Z,905
2017-07-05T10:26:41.994Z,915
2017-07-05T10:27:41.672Z,930
2017-07-05T10:28:42.330Z,900
2017-07-05T10:29:42.335Z,870
2017-07-05T10:30:42.030Z,890
2017-07-05T10:31:41.692Z,825
2017-07-05T10:32:42.046Z,690
2017-07-05T10:33:41.698Z,655
2017-07-05T10:34:42.038Z,685
2017-07-05T10:35:42.035Z,705
2017-07-05T10:36:42.376Z,675
2017-07-05T10:37:42.405Z,655
2017-07-05T10:38:42.372Z,640
2017-07-05T10:39:42.075Z,680
2017-07-05T10:40:41.812Z,695
2017-07-05T10:41:42.078Z,700
2017-07-05T10:42:42.091Z,725
2017-07-05T10:43:42.425Z,765
2017-07-05T10:44:42.389Z,745
2017-07-05T10:45:42.099Z,725
2017-07-05T10:46:41.472Z,725
2017-07-05T10:47:41.803Z,770
2017-07-05T10:48:42.124Z,845
2017-07-05T10:49:42.434Z,825
2017-07-05T10:50:42.132Z,790
2017-07-05T10:51:42.437Z,835
2017-07-05T10:52:42.141Z,790
2017-07-05T10:53:42.146Z,675
2017-07-05T10:54:41.887Z,615
2017-07-05T10:55:41.836Z,615
2017-07-05T10:56:42.155Z,620
2017-07-05T10:57:42.487Z,625
2017-07-05T10:58:42.166Z,615
2017-07-05T10:59:42.520Z,635
2017-07-05T11:00:41.593Z,690
2017-07-05T11:01:42.183Z,755
2017-07-05T11:02:42.179Z,790
2017-07-05T11:03:42.525Z,815
2017-07-05T11:04:42.180Z,855
2017-07-05T11:05:42.540Z,825
2017-07-05T11:06:42.525Z,745
2017-07-05T11:07:42.554Z,675
2017-07-05T11:08:41.876Z,640
2017-07-05T11:09:42.220Z,635
2017-07-05T11:10:42.537Z,695
2017-07-05T11:11:42.250Z,755
2017-07-05T11:12:42.551Z,720
2017-07-05T11:13:41.928Z,625
2017-07-05T11:14:42.251Z,530
2017-07-05T11:15:42.279Z,500
2017-07-05T11:16:42.256Z,475
2017-07-05T11:17:42.602Z,455
2017-07-05T11:18:42.572Z,480
2017-07-05T11:19:42.285Z,515
2017-07-05T11:20:41.960Z,550
2017-07-05T11:21:42.299Z,590
2017-07-05T11:22:42.595Z,655
2017-07-05T11:23:41.660Z,725
2017-07-05T11:24:42.607Z,760
2017-07-05T11:25:42.314Z,790
2017-07-05T11:26:42.315Z,840
2017-07-05T11:27:42.617Z,890
2017-07-05T11:28:42.617Z,920
2017-07-05T11:29:42.023Z,905
2017-07-05T11:30:42.330Z,940
2017-07-05T11:31:42.717Z,980
2017-07-05T11:32:41.708Z,1005
2017-07-05T11:33:42.355Z,1000
2017-07-05T11:34:42.026Z,980
2017-07-05T11:35:42.680Z,955
2017-07-05T11:36:42.346Z,910
2017-07-05T11:37:42.070Z,905
2017-07-05T11:38:42.047Z,935
2017-07-05T11:39:42.365Z,960
2017-07-05T11:40:42.400Z,965
2017-07-05T11:41:42.710Z,925
2017-07-05T11:42:42.396Z,850
2017-07-05T11:43:42.719Z,795
2017-07-05T11:44:42.390Z,800
2017-07-05T11:45:42.425Z,765
2017-07-05T11:46:42.732Z,770
2017-07-05T11:47:42.761Z,780
2017-07-05T11:48:42.722Z,825
2017-07-05T11:49:42.441Z,845
2017-07-05T11:50:42.436Z,860
2017-07-05T11:51:42.478Z,905
2017-07-05T11:52:42.442Z,955
2017-07-05T11:53:42.787Z,950
2017-07-05T11:54:42.469Z,925
2017-07-05T11:55:42.164Z,880
2017-07-05T11:56:42.472Z,845
2017-07-05T11:57:42.479Z,805
2017-07-05T11:58:42.798Z,785
2017-07-05T11:59:42.839Z,710
2017-07-05T12:00:42.518Z,655
2017-07-05T12:01:42.812Z,670
2017-07-05T12:02:42.840Z,685
2017-07-05T12:03:41.901Z,740
2017-07-05T12:04:42.203Z,765
2017-07-05T12:05:42.222Z,760
2017-07-05T12:06:41.581Z,760
2017-07-05T12:07:42.873Z,740
2017-07-05T12:08:42.240Z,745
2017-07-05T12:09:42.572Z,795
2017-07-05T12:10:42.565Z,785
2017-07-05T12:11:42.894Z,755
2017-07-05T12:12:42.572Z,755
2017-07-05T12:13:42.950Z,820
2017-07-05T12:14:42.284Z,875
2017-07-05T12:15:42.597Z,905
2017-07-05T12:16:41.989Z,865
2017-07-05T12:17:42.615Z,845
2017-07-05T12:18:42.288Z,865
2017-07-05T12:19:42.614Z,885
2017-07-05T12:20:42.646Z,860
2017-07-05T12:21:42.304Z,825
2017-07-05T12:22:42.651Z,815
2017-07-05T12:23:42.343Z,765
2017-07-05T12:24:42.676Z,690
2017-07-05T12:25:42.654Z,645
2017-07-05T12:26:42.668Z,650
2017-07-05T12:27:42.358Z,635
2017-07-05T12:28:42.690Z,595
2017-07-05T12:29:42.679Z,595
2017-07-05T12:30:42.413Z,610
2017-07-05T12:31:42.713Z,635
2017-07-05T12:32:42.712Z,625
2017-07-05T12:33:42.716Z,635
2017-07-05T12:34:42.400Z,655
2017-07-05T12:35:42.700Z,660
2017-07-05T12:36:42.747Z,670
2017-07-05T12:37:42.419Z,685
2017-07-05T12:38:42.752Z,675
2017-07-05T12:39:42.413Z,650
2017-07-05T12:40:42.452Z,615
2017-07-05T12:41:42.733Z,600
2017-07-05T12:42:42.130Z,580
2017-07-05T12:43:42.747Z,535
2017-07-05T12:44:42.778Z,505
2017-07-05T12:45:42.780Z,505
2017-07-05T12:46:42.778Z,535
2017-07-05T12:47:42.774Z,550
2017-07-05T12:48:42.778Z,560
2017-07-05T12:49:42.807Z,595
2017-07-05T12:50:43.119Z,650
2017-07-05T12:51:43.133Z,660
2017-07-05T12:52:43.120Z,670
2017-07-05T12:53:43.130Z,640
2017-07-05T12:54:42.824Z,610
2017-07-05T12:55:42.821Z,595
2017-07-05T12:56:43.098Z,570
2017-07-05T12:57:42.821Z,545
2017-07-05T12:58:42.517Z,525
2017-07-05T12:59:43.157Z,510
2017-07-05T13:00:43.163Z,500
2017-07-05T13:01:42.219Z,500
2017-07-05T13:02:42.532Z,520
2017-07-05T13:03:42.845Z,535
2017-07-05T13:04:42.853Z,575
2017-07-05T13:05:43.175Z,590
2017-07-05T13:06:42.862Z,600
2017-07-05T13:07:42.893Z,605
2017-07-05T13:08:42.864Z,565
2017-07-05T13:09:42.886Z,525
2017-07-05T13:10:42.567Z,545
2017-07-05T13:11:42.583Z,535
2017-07-05T13:12:42.571Z,535
2017-07-05T13:13:42.909Z,570
2017-07-05T13:14:42.577Z,580
2017-07-05T13:15:42.603Z,550
2017-07-05T13:16:42.902Z,505
2017-07-05T13:17:42.922Z,485
2017-07-05T13:18:43.276Z,510
2017-07-05T13:19:42.927Z,530
2017-07-05T13:20:42.602Z,535
2017-07-05T13:21:42.933Z,540
2017-07-05T13:22:42.928Z,545
2017-07-05T13:23:42.308Z,555
2017-07-05T13:24:42.612Z,565
2017-07-05T13:25:42.687Z,555
2017-07-05T13:26:43.248Z,550
2017-07-05T13:27:42.966Z,555
2017-07-05T13:28:42.602Z,565
2017-07-05T13:29:42.648Z,585
2017-07-05T13:30:42.315Z,605
2017-07-05T13:31:42.977Z,595
2017-07-05T13:32:43.247Z,580
2017-07-05T13:33:43.274Z,555
2017-07-05T13:34:42.327Z,535
2017-07-05T13:35:43.022Z,510
2017-07-05T13:36:42.972Z,495
2017-07-05T13:37:42.985Z,475
2017-07-05T13:38:42.975Z,460
2017-07-05T13:39:42.651Z,455
2017-07-05T13:40:43.002Z,465
2017-07-05T13:41:42.672Z,480
2017-07-05T13:42:42.998Z,510
2017-07-05T13:43:43.298Z,545
2017-07-05T13:44:43.010Z,570
2017-07-05T13:45:42.992Z,570
2017-07-05T13:46:42.680Z,560
2017-07-05T13:47:43.021Z,540
2017-07-05T13:48:42.699Z,530
2017-07-05T13:49:43.314Z,535
2017-07-05T13:50:43.022Z,540
2017-07-05T13:51:42.717Z,535
2017-07-05T13:52:42.723Z,535
2017-07-05T13:53:43.035Z,540
2017-07-05T13:54:43.028Z,560
2017-07-05T13:55:43.329Z,555
2017-07-05T13:56:43.038Z,520
2017-07-05T13:57:43.044Z,505
2017-07-05T13:58:42.419Z,485
2017-07-05T13:59:43.033Z,480
2017-07-05T14:00:43.106Z,470